sensor_id;sensor_type;location;lat;lon;timestamp;P1;durP1;ratioP1;P2;durP2;ratioP2
17404;SDS011;8820;54.604;18.226;2023-02-28T00:01:45;65.27;;;30.50;;
17404;SDS011;8820;54.604;18.226;2023-02-28T00:04:14;61.53;;;30.40;;
17404;SDS011;8820;54.604;18.226;2023-02-28T00:06:43;64.67;;;30.33;;
17404;SDS011;8820;54.604;18.226;2023-02-28T00:09:12;57.00;;;30.53;;
17404;SDS011;8820;54.604;18.226;2023-02-28T00:11:42;56.20;;;29.03;;
17404;SDS011;8820;54.604;18.226;2023-02-28T00:14:11;56.60;;;29.53;;
17404;SDS011;8820;54.604;18.226;2023-02-28T00:16:40;63.60;;;27.03;;
17404;SDS011;8820;54.604;18.226;2023-02-28T00:19:09;53.77;;;26.10;;
17404;SDS011;8820;54.604;18.226;2023-02-28T00:21:40;49.30;;;24.33;;
17404;SDS011;8820;54.604;18.226;2023-02-28T00:24:09;40.80;;;23.80;;
17404;SDS011;8820;54.604;18.226;2023-02-28T00:26:38;42.97;;;23.83;;
17404;SDS011;8820;54.604;18.226;2023-02-28T00:29:11;41.80;;;22.10;;
17404;SDS011;8820;54.604;18.226;2023-02-28T00:31:43;36.20;;;20.93;;
17404;SDS011;8820;54.604;18.226;2023-02-28T00:34:12;46.27;;;24.23;;
17404;SDS011;8820;54.604;18.226;2023-02-28T00:36:41;47.07;;;25.33;;
17404;SDS011;8820;54.604;18.226;2023-02-28T00:39:12;53.60;;;27.30;;
17404;SDS011;8820;54.604;18.226;2023-02-28T00:41:41;65.90;;;35.87;;
17404;SDS011;8820;54.604;18.226;2023-02-28T00:44:12;64.90;;;33.27;;
17404;SDS011;8820;54.604;18.226;2023-02-28T00:46:41;51.30;;;24.37;;
17404;SDS011;8820;54.604;18.226;2023-02-28T00:49:10;44.17;;;25.80;;
17404;SDS011;8820;54.604;18.226;2023-02-28T00:51:41;47.57;;;24.50;;
17404;SDS011;8820;54.604;18.226;2023-02-28T00:54:10;48.33;;;24.57;;
17404;SDS011;8820;54.604;18.226;2023-02-28T00:56:39;47.13;;;24.53;;
17404;SDS011;8820;54.604;18.226;2023-02-28T00:59:08;54.13;;;26.83;;
17404;SDS011;8820;54.604;18.226;2023-02-28T01:01:39;50.90;;;25.97;;
17404;SDS011;8820;54.604;18.226;2023-02-28T01:04:08;46.93;;;24.97;;
17404;SDS011;8820;54.604;18.226;2023-02-28T01:06:37;45.93;;;23.20;;
17404;SDS011;8820;54.604;18.226;2023-02-28T01:09:09;44.90;;;22.90;;
17404;SDS011;8820;54.604;18.226;2023-02-28T01:11:41;39.57;;;20.70;;
17404;SDS011;8820;54.604;18.226;2023-02-28T01:14:11;33.90;;;19.90;;
17404;SDS011;8820;54.604;18.226;2023-02-28T01:16:43;35.07;;;19.23;;
17404;SDS011;8820;54.604;18.226;2023-02-28T01:19:12;32.87;;;18.37;;
17404;SDS011;8820;54.604;18.226;2023-02-28T01:21:41;31.47;;;18.97;;
17404;SDS011;8820;54.604;18.226;2023-02-28T01:24:11;36.93;;;19.53;;
17404;SDS011;8820;54.604;18.226;2023-02-28T01:26:40;32.53;;;17.80;;
17404;SDS011;8820;54.604;18.226;2023-02-28T01:29:09;31.00;;;17.40;;
17404;SDS011;8820;54.604;18.226;2023-02-28T01:31:38;35.03;;;18.40;;
17404;SDS011;8820;54.604;18.226;2023-02-28T01:34:09;36.00;;;19.37;;
17404;SDS011;8820;54.604;18.226;2023-02-28T01:36:38;47.47;;;24.90;;
17404;SDS011;8820;54.604;18.226;2023-02-28T01:39:07;75.07;;;37.83;;
17404;SDS011;8820;54.604;18.226;2023-02-28T01:41:36;78.80;;;41.60;;
17404;SDS011;8820;54.604;18.226;2023-02-28T01:44:07;76.07;;;39.80;;
17404;SDS011;8820;54.604;18.226;2023-02-28T01:47:13;63.43;;;33.83;;
17404;SDS011;8820;54.604;18.226;2023-02-28T01:49:44;80.80;;;38.67;;
17404;SDS011;8820;54.604;18.226;2023-02-28T01:52:13;74.93;;;38.30;;
17404;SDS011;8820;54.604;18.226;2023-02-28T01:54:45;70.87;;;33.37;;
17404;SDS011;8820;54.604;18.226;2023-02-28T01:57:18;61.00;;;31.53;;
17404;SDS011;8820;54.604;18.226;2023-02-28T01:59:51;66.83;;;33.23;;
17404;SDS011;8820;54.604;18.226;2023-02-28T02:02:22;80.33;;;38.73;;
17404;SDS011;8820;54.604;18.226;2023-02-28T02:04:55;83.03;;;41.13;;
17404;SDS011;8820;54.604;18.226;2023-02-28T02:07:29;100.40;;;45.50;;
17404;SDS011;8820;54.604;18.226;2023-02-28T02:10:00;95.70;;;46.27;;
17404;SDS011;8820;54.604;18.226;2023-02-28T02:12:40;89.63;;;44.93;;
17404;SDS011;8820;54.604;18.226;2023-02-28T02:15:25;113.03;;;51.33;;
17404;SDS011;8820;54.604;18.226;2023-02-28T02:18:01;115.07;;;49.57;;
17404;SDS011;8820;54.604;18.226;2023-02-28T02:24:04;135.00;;;58.37;;
17404;SDS011;8820;54.604;18.226;2023-02-28T02:26:57;124.23;;;57.67;;
17404;SDS011;8820;54.604;18.226;2023-02-28T02:29:47;129.97;;;60.03;;
17404;SDS011;8820;54.604;18.226;2023-02-28T02:32:48;112.00;;;53.57;;
17404;SDS011;8820;54.604;18.226;2023-02-28T02:35:52;105.40;;;50.10;;
17404;SDS011;8820;54.604;18.226;2023-02-28T02:38:27;108.60;;;51.80;;
17404;SDS011;8820;54.604;18.226;2023-02-28T02:41:04;109.70;;;52.90;;
17404;SDS011;8820;54.604;18.226;2023-02-28T02:43:40;110.47;;;52.87;;
17404;SDS011;8820;54.604;18.226;2023-02-28T02:46:19;109.23;;;51.27;;
17404;SDS011;8820;54.604;18.226;2023-02-28T02:48:52;100.27;;;49.10;;
17404;SDS011;8820;54.604;18.226;2023-02-28T02:51:26;93.27;;;45.63;;
17404;SDS011;8820;54.604;18.226;2023-02-28T02:53:58;86.20;;;43.03;;
17404;SDS011;8820;54.604;18.226;2023-02-28T02:56:32;86.30;;;42.20;;
17404;SDS011;8820;54.604;18.226;2023-02-28T02:59:04;76.30;;;38.20;;
17404;SDS011;8820;54.604;18.226;2023-02-28T03:01:36;64.03;;;33.00;;
17404;SDS011;8820;54.604;18.226;2023-02-28T03:04:09;62.60;;;32.77;;
17404;SDS011;8820;54.604;18.226;2023-02-28T03:06:42;73.43;;;35.07;;
17404;SDS011;8820;54.604;18.226;2023-02-28T03:09:11;51.90;;;27.97;;
17404;SDS011;8820;54.604;18.226;2023-02-28T03:11:40;52.40;;;27.23;;
17404;SDS011;8820;54.604;18.226;2023-02-28T03:14:14;53.77;;;27.80;;
17404;SDS011;8820;54.604;18.226;2023-02-28T03:16:58;60.77;;;29.37;;
17404;SDS011;8820;54.604;18.226;2023-02-28T03:19:44;63.03;;;32.73;;
17404;SDS011;8820;54.604;18.226;2023-02-28T03:25:21;70.07;;;34.33;;
17404;SDS011;8820;54.604;18.226;2023-02-28T03:28:00;58.80;;;31.60;;
17404;SDS011;8820;54.604;18.226;2023-02-28T03:30:35;60.27;;;27.87;;
17404;SDS011;8820;54.604;18.226;2023-02-28T03:33:10;56.77;;;27.87;;
17404;SDS011;8820;54.604;18.226;2023-02-28T03:35:43;55.67;;;27.77;;
17404;SDS011;8820;54.604;18.226;2023-02-28T03:38:18;54.67;;;27.17;;
17404;SDS011;8820;54.604;18.226;2023-02-28T03:40:55;63.53;;;31.90;;
17404;SDS011;8820;54.604;18.226;2023-02-28T03:43:31;68.90;;;33.67;;
17404;SDS011;8820;54.604;18.226;2023-02-28T03:46:03;66.53;;;34.03;;
17404;SDS011;8820;54.604;18.226;2023-02-28T03:48:38;65.70;;;31.60;;
17404;SDS011;8820;54.604;18.226;2023-02-28T03:51:12;58.67;;;29.60;;
17404;SDS011;8820;54.604;18.226;2023-02-28T03:53:47;59.70;;;29.33;;
17404;SDS011;8820;54.604;18.226;2023-02-28T03:56:20;54.27;;;26.00;;
17404;SDS011;8820;54.604;18.226;2023-02-28T03:58:53;42.73;;;22.87;;
17404;SDS011;8820;54.604;18.226;2023-02-28T04:01:30;40.17;;;20.90;;
17404;SDS011;8820;54.604;18.226;2023-02-28T04:04:03;38.83;;;21.10;;
17404;SDS011;8820;54.604;18.226;2023-02-28T04:06:33;32.17;;;18.33;;
17404;SDS011;8820;54.604;18.226;2023-02-28T04:09:04;35.03;;;17.47;;
17404;SDS011;8820;54.604;18.226;2023-02-28T04:11:36;28.80;;;16.57;;
17404;SDS011;8820;54.604;18.226;2023-02-28T04:14:07;28.07;;;16.43;;
17404;SDS011;8820;54.604;18.226;2023-02-28T04:16:38;32.07;;;17.87;;
17404;SDS011;8820;54.604;18.226;2023-02-28T04:19:09;42.30;;;22.27;;
17404;SDS011;8820;54.604;18.226;2023-02-28T04:21:40;46.40;;;22.47;;
17404;SDS011;8820;54.604;18.226;2023-02-28T04:24:12;35.37;;;20.60;;
17404;SDS011;8820;54.604;18.226;2023-02-28T04:26:43;42.50;;;20.43;;
17404;SDS011;8820;54.604;18.226;2023-02-28T04:29:17;42.63;;;22.47;;
17404;SDS011;8820;54.604;18.226;2023-02-28T04:31:47;44.37;;;22.87;;
17404;SDS011;8820;54.604;18.226;2023-02-28T04:34:16;49.87;;;22.97;;
17404;SDS011;8820;54.604;18.226;2023-02-28T04:36:45;47.10;;;22.00;;
17404;SDS011;8820;54.604;18.226;2023-02-28T04:39:29;37.57;;;21.27;;
17404;SDS011;8820;54.604;18.226;2023-02-28T04:41:58;46.63;;;25.13;;
17404;SDS011;8820;54.604;18.226;2023-02-28T04:44:27;54.03;;;26.83;;
17404;SDS011;8820;54.604;18.226;2023-02-28T04:46:56;66.57;;;29.57;;
17404;SDS011;8820;54.604;18.226;2023-02-28T04:49:25;66.57;;;30.33;;
17404;SDS011;8820;54.604;18.226;2023-02-28T04:51:54;72.87;;;31.30;;
17404;SDS011;8820;54.604;18.226;2023-02-28T04:54:23;67.67;;;30.27;;
17404;SDS011;8820;54.604;18.226;2023-02-28T04:56:53;61.90;;;28.63;;
17404;SDS011;8820;54.604;18.226;2023-02-28T04:59:22;58.83;;;27.80;;
17404;SDS011;8820;54.604;18.226;2023-02-28T05:01:51;54.73;;;26.63;;
17404;SDS011;8820;54.604;18.226;2023-02-28T05:04:20;52.20;;;26.70;;
17404;SDS011;8820;54.604;18.226;2023-02-28T05:06:49;58.43;;;27.93;;
17404;SDS011;8820;54.604;18.226;2023-02-28T05:09:18;62.10;;;29.13;;
17404;SDS011;8820;54.604;18.226;2023-02-28T05:11:47;53.37;;;27.37;;
17404;SDS011;8820;54.604;18.226;2023-02-28T05:14:17;55.57;;;27.20;;
17404;SDS011;8820;54.604;18.226;2023-02-28T05:16:46;62.33;;;29.67;;
17404;SDS011;8820;54.604;18.226;2023-02-28T05:19:15;56.83;;;29.13;;
17404;SDS011;8820;54.604;18.226;2023-02-28T05:21:49;57.10;;;29.53;;
17404;SDS011;8820;54.604;18.226;2023-02-28T05:24:19;63.73;;;29.33;;
17404;SDS011;8820;54.604;18.226;2023-02-28T05:26:49;57.57;;;29.43;;
17404;SDS011;8820;54.604;18.226;2023-02-28T05:29:21;59.17;;;30.07;;
17404;SDS011;8820;54.604;18.226;2023-02-28T05:31:50;55.50;;;25.93;;
17404;SDS011;8820;54.604;18.226;2023-02-28T05:34:19;55.97;;;25.97;;
17404;SDS011;8820;54.604;18.226;2023-02-28T05:36:48;49.33;;;26.23;;
17404;SDS011;8820;54.604;18.226;2023-02-28T05:39:17;41.67;;;22.70;;
17404;SDS011;8820;54.604;18.226;2023-02-28T05:41:46;64.33;;;29.50;;
17404;SDS011;8820;54.604;18.226;2023-02-28T05:44:15;68.70;;;32.90;;
17404;SDS011;8820;54.604;18.226;2023-02-28T05:46:45;72.20;;;34.57;;
17404;SDS011;8820;54.604;18.226;2023-02-28T05:49:14;65.63;;;34.30;;
17404;SDS011;8820;54.604;18.226;2023-02-28T05:51:43;95.67;;;48.03;;
17404;SDS011;8820;54.604;18.226;2023-02-28T05:54:12;159.53;;;77.10;;
17404;SDS011;8820;54.604;18.226;2023-02-28T05:56:41;185.30;;;92.10;;
17404;SDS011;8820;54.604;18.226;2023-02-28T23:58:57;13.47;;;7.43;;
